Aviation Digital Data Service (ADDS)

Output produced by METARs form (1323 UTC 21 August 2019)
found at http://www.aviationweather.gov/metar/data/
 
METAR text: RJTU 210740Z 04006KT 1500 +TSRA BR FEW008 SCT012 BKN020CB 24/23 Q1010 RMK 1ST008 3CU012 7CB020 A2985 FBL TS OHD MOV UNK RI++
Conditions at: RJTU (UTSUNOMIYA (JGSD, JP) observed 0740 UTC 21 August 2019
Temperature: 24.0°C (75°F)
Dewpoint: 23.0°C (73°F) [RH = 94%]
Pressure (altimeter): 29.82 inches Hg (1010.0 mb)
Winds: from the NE (40 degrees) at 7 MPH (6 knots; 3.1 m/s)
Visibility: 0.93 miles (1.50 km)
Ceiling: 2000 feet AGL
Clouds: few clouds at 800 feet AGL
scattered clouds at 1200 feet AGL
broken clouds at 2000 feet AGL
Weather: +TSRA BR  (heavy rain associated with thunderstorm(s), mist)

METAR text: RJTU 210711Z 07010KT 4500 +TSRA BR FEW015 SCT020 BKN025 FEW025CB 25/23 Q1010 RMK 1CU015 3CU020 6CU025 2CB025 A2982 FBL TS 10KM W MOV UNK
Conditions at: RJTU (UTSUNOMIYA (JGSD, JP) observed 0711 UTC 21 August 2019
Temperature: 25.0°C (77°F)
Dewpoint: 23.0°C (73°F) [RH = 89%]
Pressure (altimeter): 29.82 inches Hg (1010.0 mb)
Winds: from the ENE (70 degrees) at 12 MPH (10 knots; 5.1 m/s)
Visibility: 2.80 miles (4.51 km)
Ceiling: 2500 feet AGL
Clouds: few clouds at 1500 feet AGL
scattered clouds at 2000 feet AGL
broken clouds at 2500 feet AGL
few clouds at 2500 feet AGL
Weather: +TSRA BR  (heavy rain associated with thunderstorm(s), mist)

METAR text: RJTU 210632Z 14007KT 4000 -SHRA BR FEW015 BKN025 FEW030CB BKN070 27/23 Q1009 RMK 1CU015 6CU025 1CB030 6AC070 A2981 CB 10KM NW-NE MOV UNK
Conditions at: RJTU (UTSUNOMIYA (JGSD, JP) observed 0632 UTC 21 August 2019
Temperature: 27.0°C (81°F)
Dewpoint: 23.0°C (73°F) [RH = 79%]
Pressure (altimeter): 29.79 inches Hg (1009.0 mb)
Winds: from the SE (140 degrees) at 8 MPH (7 knots; 3.6 m/s)
Visibility: 2.49 miles (4.01 km)
Ceiling: 2500 feet AGL
Clouds: few clouds at 1500 feet AGL
broken clouds at 2500 feet AGL
few clouds at 3000 feet AGL
broken clouds at 7000 feet AGL
Weather: -SHRA BR  (light rain showers, mist)

METAR text: RJTU 210619Z 15010KT 9999 -SHRA FEW015 BKN025 FEW030CB BKN070 28/22 Q1009 RMK 1CU015 5CU025 1CB030 6AC070 A2981 CB 10KM NW-NE MOV UNK
Conditions at: RJTU (UTSUNOMIYA (JGSD, JP) observed 0619 UTC 21 August 2019
Temperature: 28.0°C (82°F)
Dewpoint: 22.0°C (72°F) [RH = 70%]
Pressure (altimeter): 29.79 inches Hg (1009.0 mb)
Winds: from the SSE (150 degrees) at 12 MPH (10 knots; 5.1 m/s)
Visibility: 6 or more miles (10+ km)
Ceiling: 2500 feet AGL
Clouds: few clouds at 1500 feet AGL
broken clouds at 2500 feet AGL
few clouds at 3000 feet AGL
broken clouds at 7000 feet AGL
Weather: -SHRA  (light rain showers)

METAR text: RJTU 210315Z 16005KT 100V190 9999 -SHRA FEW020 SCT030 BKN070 30/22 Q1010 RMK 1CU020 4CU030 6AC070 A2983
Conditions at: RJTU (UTSUNOMIYA (JGSD, JP) observed 0315 UTC 21 August 2019
Temperature: 30.0°C (86°F)
Dewpoint: 22.0°C (72°F) [RH = 62%]
Pressure (altimeter): 29.82 inches Hg (1010.0 mb)
Winds: from the SSE (160 degrees) at 6 MPH (5 knots; 2.6 m/s)
Visibility: 6 or more miles (10+ km)
Ceiling: 7000 feet AGL
Clouds: few clouds at 2000 feet AGL
scattered clouds at 3000 feet AGL
broken clouds at 7000 feet AGL
Weather: -SHRA  (light rain showers)

METAR text: RJTU 210230Z 14006KT 090V180 9999 FEW020 SCT035 FEW035TCU BKN080 30/21 Q1010 RMK 1CU020 4CU035 1TCU035 6AC080 A2984 TCU 10KM W-N MOV E
Conditions at: RJTU (UTSUNOMIYA (JGSD, JP) observed 0230 UTC 21 August 2019
Temperature: 30.0°C (86°F)
Dewpoint: 21.0°C (70°F) [RH = 59%]
Pressure (altimeter): 29.82 inches Hg (1010.0 mb)
Winds: from the SE (140 degrees) at 7 MPH (6 knots; 3.1 m/s)
Visibility: 6 or more miles (10+ km)
Ceiling: 8000 feet AGL
Clouds: few clouds at 2000 feet AGL
scattered clouds at 3500 feet AGL
few clouds at 3500 feet AGL
broken clouds at 8000 feet AGL
Weather: no significant weather observed at this time

METAR text: RJTU 210141Z 15005KT 090V210 9999 FEW020 BKN035 30/22 Q1011 RMK 2CU020 6CU035 A2986
Conditions at: RJTU (UTSUNOMIYA (JGSD, JP) observed 0141 UTC 21 August 2019
Temperature: 30.0°C (86°F)
Dewpoint: 22.0°C (72°F) [RH = 62%]
Pressure (altimeter): 29.85 inches Hg (1011.0 mb)
Winds: from the SSE (150 degrees) at 6 MPH (5 knots; 2.6 m/s)
Visibility: 6 or more miles (10+ km)
Ceiling: 3500 feet AGL
Clouds: few clouds at 2000 feet AGL
broken clouds at 3500 feet AGL
Weather: no significant weather observed at this time

METAR text: RJTU 200648Z 06009KT 5000 TSRA BR FEW004 FEW020CB SCT030 BKN050 23/23 Q1009 RMK 1ST004 1CB020 3CU030 6SC050 A2981 MOD TS OHD MOV SE P/FR
Conditions at: RJTU (UTSUNOMIYA (JGSD, JP) observed 0648 UTC 20 August 2019
Temperature: 23.0°C (73°F)
Dewpoint: 23.0°C (73°F) [RH = 100%]
Pressure (altimeter): 29.79 inches Hg (1009.0 mb)
Winds: from the ENE (60 degrees) at 10 MPH (9 knots; 4.6 m/s)
Visibility: 3 miles ( 5 km)
Ceiling: 5000 feet AGL
Clouds: few clouds at 400 feet AGL
few clouds at 2000 feet AGL
scattered clouds at 3000 feet AGL
broken clouds at 5000 feet AGL
Weather: TSRA BR  (rain associated with thunderstorm(s), mist)

METAR text: RJTU 200613Z 33005KT 250V050 1000 +TSRA BR FEW006 BKN009 BKN012 FEW015CB 24/23 Q1011 RMK 2ST006 6ST009 7CU012 1CB015 A2986 FBL TS 10KM W MOV STN RI++
Conditions at: RJTU (UTSUNOMIYA (JGSD, JP) observed 0613 UTC 20 August 2019
Temperature: 24.0°C (75°F)
Dewpoint: 23.0°C (73°F) [RH = 94%]
Pressure (altimeter): 29.85 inches Hg (1011.0 mb)
Winds: from the NNW (330 degrees) at 6 MPH (5 knots; 2.6 m/s)
Visibility: 0.62 miles (1.00 km)
Ceiling: 900 feet AGL
Clouds: few clouds at 600 feet AGL
broken clouds at 900 feet AGL
broken clouds at 1200 feet AGL
few clouds at 1500 feet AGL
Weather: +TSRA BR  (heavy rain associated with thunderstorm(s), mist)

METAR text: RJTU 200607Z 36005KT 260V050 3000 +SHRA BR FEW006 BKN010 BKN012 24/22 Q1010 RMK 2ST006 6ST010 7CU012 A2985
Conditions at: RJTU (UTSUNOMIYA (JGSD, JP) observed 0607 UTC 20 August 2019
Temperature: 24.0°C (75°F)
Dewpoint: 22.0°C (72°F) [RH = 89%]
Pressure (altimeter): 29.82 inches Hg (1010.0 mb)
Winds: from the N (360 degrees) at 6 MPH (5 knots; 2.6 m/s)
Visibility: 1.86 miles (2.99 km)
Ceiling: 1000 feet AGL
Clouds: few clouds at 600 feet AGL
broken clouds at 1000 feet AGL
broken clouds at 1200 feet AGL
Weather: +SHRA BR  (heavy rain showers, mist)

METAR text: RJTU 200602Z 36009KT 8000 SHRA FEW006 BKN010 BKN012 25/22 Q1010 RMK 2ST006 6ST010 7CU012 A2985 3500N
Conditions at: RJTU (UTSUNOMIYA (JGSD, JP) observed 0602 UTC 20 August 2019
Temperature: 25.0°C (77°F)
Dewpoint: 22.0°C (72°F) [RH = 83%]
Pressure (altimeter): 29.82 inches Hg (1010.0 mb)
Winds: from the N (360 degrees) at 10 MPH (9 knots; 4.6 m/s)
Visibility: 5 miles ( 8 km)
Ceiling: 1000 feet AGL
Clouds: few clouds at 600 feet AGL
broken clouds at 1000 feet AGL
broken clouds at 1200 feet AGL
Weather: SHRA  (rain showers)

METAR text: RJTU 200339Z 03005KT 9999 FEW006 SCT008 BKN012 25/22 Q1011 RMK 1ST006 3ST008 6CU012 A2986
Conditions at: RJTU (UTSUNOMIYA (JGSD, JP) observed 0339 UTC 20 August 2019
Temperature: 25.0°C (77°F)
Dewpoint: 22.0°C (72°F) [RH = 83%]
Pressure (altimeter): 29.85 inches Hg (1011.0 mb)
Winds: from the NNE (30 degrees) at 6 MPH (5 knots; 2.6 m/s)
Visibility: 6 or more miles (10+ km)
Ceiling: 1200 feet AGL
Clouds: few clouds at 600 feet AGL
scattered clouds at 800 feet AGL
broken clouds at 1200 feet AGL
Weather: no significant weather observed at this time

METAR text: RJTU 200212Z 02005KT 9000 FEW004 SCT005 BKN012 24/22 Q1012 RMK 1ST004 3ST005 5CU012 A2989
Conditions at: RJTU (UTSUNOMIYA (JGSD, JP) observed 0212 UTC 20 August 2019
Temperature: 24.0°C (75°F)
Dewpoint: 22.0°C (72°F) [RH = 89%]
Pressure (altimeter): 29.88 inches Hg (1012.0 mb)
Winds: from the NNE (20 degrees) at 6 MPH (5 knots; 2.6 m/s)
Visibility: 6 miles ( 9 km)
Ceiling: 1200 feet AGL
Clouds: few clouds at 400 feet AGL
scattered clouds at 500 feet AGL
broken clouds at 1200 feet AGL
Weather: no significant weather observed at this time